sensor_id;sensor_type;location;lat;lon;timestamp;P1;durP1;ratioP1;P2;durP2;ratioP2
71303;SDS011;59091;47.446;19.148;2022-11-11T00:02:02;40.75;;;17.33;;
71303;SDS011;59091;47.446;19.148;2022-11-11T00:04:27;45.80;;;17.52;;
71303;SDS011;59091;47.446;19.148;2022-11-11T00:06:53;36.60;;;16.55;;
71303;SDS011;59091;47.446;19.148;2022-11-11T00:09:18;47.15;;;17.23;;
71303;SDS011;59091;47.446;19.148;2022-11-11T00:11:44;44.45;;;16.67;;
71303;SDS011;59091;47.446;19.148;2022-11-11T00:14:09;37.63;;;16.42;;
71303;SDS011;59091;47.446;19.148;2022-11-11T00:16:35;36.05;;;15.57;;
71303;SDS011;59091;47.446;19.148;2022-11-11T00:22:03;39.60;;;15.40;;
71303;SDS011;59091;47.446;19.148;2022-11-11T00:24:46;37.50;;;15.00;;
71303;SDS011;59091;47.446;19.148;2022-11-11T00:27:30;34.78;;;15.73;;
71303;SDS011;59091;47.446;19.148;2022-11-11T00:29:56;33.15;;;15.00;;
71303;SDS011;59091;47.446;19.148;2022-11-11T00:32:21;32.33;;;14.95;;
71303;SDS011;59091;47.446;19.148;2022-11-11T00:34:47;31.83;;;14.35;;
71303;SDS011;59091;47.446;19.148;2022-11-11T00:37:35;30.77;;;14.13;;
71303;SDS011;59091;47.446;19.148;2022-11-11T00:40:01;28.90;;;14.45;;
71303;SDS011;59091;47.446;19.148;2022-11-11T00:42:27;31.45;;;14.20;;
71303;SDS011;59091;47.446;19.148;2022-11-11T00:44:53;29.05;;;13.25;;
71303;SDS011;59091;47.446;19.148;2022-11-11T00:47:18;25.95;;;13.60;;
71303;SDS011;59091;47.446;19.148;2022-11-11T00:50:04;31.00;;;13.55;;
71303;SDS011;59091;47.446;19.148;2022-11-11T00:52:49;27.05;;;13.18;;
71303;SDS011;59091;47.446;19.148;2022-11-11T00:55:14;29.80;;;13.18;;
71303;SDS011;59091;47.446;19.148;2022-11-11T00:57:40;29.92;;;13.88;;
71303;SDS011;59091;47.446;19.148;2022-11-11T01:00:05;33.00;;;14.20;;
71303;SDS011;59091;47.446;19.148;2022-11-11T01:02:31;29.90;;;13.32;;
71303;SDS011;59091;47.446;19.148;2022-11-11T01:04:56;29.02;;;13.82;;
71303;SDS011;59091;47.446;19.148;2022-11-11T01:07:22;27.95;;;13.00;;
71303;SDS011;59091;47.446;19.148;2022-11-11T01:09:47;26.08;;;12.90;;
71303;SDS011;59091;47.446;19.148;2022-11-11T01:12:13;27.80;;;12.73;;
71303;SDS011;59091;47.446;19.148;2022-11-11T01:14:39;31.83;;;12.88;;
71303;SDS011;59091;47.446;19.148;2022-11-11T01:17:04;31.42;;;13.43;;
71303;SDS011;59091;47.446;19.148;2022-11-11T01:19:30;26.20;;;13.15;;
71303;SDS011;59091;47.446;19.148;2022-11-11T01:21:56;25.25;;;12.10;;
71303;SDS011;59091;47.446;19.148;2022-11-11T01:24:22;22.90;;;11.77;;
71303;SDS011;59091;47.446;19.148;2022-11-11T01:26:47;24.10;;;12.13;;
71303;SDS011;59091;47.446;19.148;2022-11-11T01:29:13;28.77;;;12.88;;
71303;SDS011;59091;47.446;19.148;2022-11-11T01:31:38;27.10;;;11.25;;
71303;SDS011;59091;47.446;19.148;2022-11-11T01:34:04;27.67;;;12.07;;
71303;SDS011;59091;47.446;19.148;2022-11-11T01:36:29;27.23;;;12.38;;
71303;SDS011;59091;47.446;19.148;2022-11-11T01:38:56;26.27;;;12.18;;
71303;SDS011;59091;47.446;19.148;2022-11-11T01:41:24;27.33;;;11.95;;
71303;SDS011;59091;47.446;19.148;2022-11-11T01:44:18;21.67;;;11.95;;
71303;SDS011;59091;47.446;19.148;2022-11-11T01:46:46;25.17;;;10.88;;
71303;SDS011;59091;47.446;19.148;2022-11-11T01:54:40;23.23;;;10.82;;
71303;SDS011;59091;47.446;19.148;2022-11-11T01:57:17;26.42;;;11.35;;
71303;SDS011;59091;47.446;19.148;2022-11-11T01:59:46;21.17;;;10.82;;
71303;SDS011;59091;47.446;19.148;2022-11-11T02:02:25;24.48;;;11.70;;
71303;SDS011;59091;47.446;19.148;2022-11-11T02:05:13;23.80;;;11.27;;
71303;SDS011;59091;47.446;19.148;2022-11-11T02:07:58;23.48;;;10.93;;
71303;SDS011;59091;47.446;19.148;2022-11-11T02:10:28;23.38;;;10.55;;
71303;SDS011;59091;47.446;19.148;2022-11-11T02:12:56;24.77;;;10.98;;
71303;SDS011;59091;47.446;19.148;2022-11-11T02:18:05;20.80;;;10.15;;
71303;SDS011;59091;47.446;19.148;2022-11-11T02:20:38;25.17;;;11.65;;
71303;SDS011;59091;47.446;19.148;2022-11-11T02:23:14;21.48;;;11.60;;
71303;SDS011;59091;47.446;19.148;2022-11-11T02:26:00;21.40;;;11.20;;
71303;SDS011;59091;47.446;19.148;2022-11-11T02:28:27;23.25;;;11.75;;
71303;SDS011;59091;47.446;19.148;2022-11-11T02:30:55;20.83;;;10.80;;
71303;SDS011;59091;47.446;19.148;2022-11-11T02:33:21;27.52;;;11.57;;
71303;SDS011;59091;47.446;19.148;2022-11-11T02:35:50;22.20;;;11.40;;
71303;SDS011;59091;47.446;19.148;2022-11-11T02:38:20;18.52;;;10.38;;
71303;SDS011;59091;47.446;19.148;2022-11-11T02:40:45;23.25;;;11.30;;
71303;SDS011;59091;47.446;19.148;2022-11-11T02:43:30;23.75;;;11.75;;
71303;SDS011;59091;47.446;19.148;2022-11-11T02:45:57;29.00;;;12.60;;
71303;SDS011;59091;47.446;19.148;2022-11-11T02:48:23;22.42;;;11.43;;
71303;SDS011;59091;47.446;19.148;2022-11-11T02:50:49;29.67;;;12.52;;
71303;SDS011;59091;47.446;19.148;2022-11-11T02:53:14;24.55;;;12.52;;
71303;SDS011;59091;47.446;19.148;2022-11-11T02:55:39;28.60;;;14.27;;
71303;SDS011;59091;47.446;19.148;2022-11-11T02:58:05;27.98;;;12.75;;
71303;SDS011;59091;47.446;19.148;2022-11-11T03:00:31;22.35;;;12.68;;
71303;SDS011;59091;47.446;19.148;2022-11-11T03:02:56;20.23;;;11.25;;
71303;SDS011;59091;47.446;19.148;2022-11-11T03:05:22;23.75;;;13.27;;
71303;SDS011;59091;47.446;19.148;2022-11-11T03:07:47;24.27;;;12.52;;
71303;SDS011;59091;47.446;19.148;2022-11-11T03:10:13;24.85;;;12.85;;
71303;SDS011;59091;47.446;19.148;2022-11-11T03:12:38;21.58;;;12.38;;
71303;SDS011;59091;47.446;19.148;2022-11-11T03:15:04;24.58;;;12.05;;
71303;SDS011;59091;47.446;19.148;2022-11-11T03:17:30;28.35;;;13.13;;
71303;SDS011;59091;47.446;19.148;2022-11-11T03:20:07;20.85;;;12.07;;
71303;SDS011;59091;47.446;19.148;2022-11-11T03:23:00;24.70;;;12.20;;
71303;SDS011;59091;47.446;19.148;2022-11-11T03:25:37;23.27;;;13.02;;
71303;SDS011;59091;47.446;19.148;2022-11-11T03:28:05;26.33;;;13.10;;
71303;SDS011;59091;47.446;19.148;2022-11-11T03:30:45;25.58;;;12.80;;
71303;SDS011;59091;47.446;19.148;2022-11-11T03:33:12;24.60;;;12.95;;
71303;SDS011;59091;47.446;19.148;2022-11-11T03:35:38;26.33;;;12.52;;
71303;SDS011;59091;47.446;19.148;2022-11-11T03:38:05;21.42;;;12.52;;
71303;SDS011;59091;47.446;19.148;2022-11-11T03:40:47;28.98;;;14.27;;
71303;SDS011;59091;47.446;19.148;2022-11-11T03:43:15;24.23;;;13.00;;
71303;SDS011;59091;47.446;19.148;2022-11-11T03:45:42;23.77;;;13.00;;
71303;SDS011;59091;47.446;19.148;2022-11-11T03:48:09;26.73;;;12.88;;
71303;SDS011;59091;47.446;19.148;2022-11-11T03:50:34;26.73;;;13.40;;
71303;SDS011;59091;47.446;19.148;2022-11-11T03:53:00;23.63;;;13.20;;
71303;SDS011;59091;47.446;19.148;2022-11-11T03:55:26;29.05;;;12.77;;
71303;SDS011;59091;47.446;19.148;2022-11-11T03:57:51;27.88;;;13.73;;
71303;SDS011;59091;47.446;19.148;2022-11-11T04:00:18;28.70;;;13.55;;
71303;SDS011;59091;47.446;19.148;2022-11-11T04:02:45;25.50;;;13.32;;
71303;SDS011;59091;47.446;19.148;2022-11-11T04:08:14;24.33;;;11.80;;
71303;SDS011;59091;47.446;19.148;2022-11-11T04:11:00;23.45;;;12.40;;
71303;SDS011;59091;47.446;19.148;2022-11-11T04:13:29;30.15;;;12.85;;
71303;SDS011;59091;47.446;19.148;2022-11-11T04:16:15;23.80;;;12.55;;
71303;SDS011;59091;47.446;19.148;2022-11-11T04:18:41;25.00;;;13.48;;
71303;SDS011;59091;47.446;19.148;2022-11-11T04:24:09;28.80;;;12.40;;
71303;SDS011;59091;47.446;19.148;2022-11-11T04:26:55;28.30;;;12.55;;
71303;SDS011;59091;47.446;19.148;2022-11-11T04:29:22;27.30;;;13.25;;
71303;SDS011;59091;47.446;19.148;2022-11-11T04:34:51;24.95;;;12.55;;
71303;SDS011;59091;47.446;19.148;2022-11-11T04:37:18;25.90;;;12.25;;
71303;SDS011;59091;47.446;19.148;2022-11-11T04:39:44;27.45;;;13.73;;
71303;SDS011;59091;47.446;19.148;2022-11-11T04:42:29;23.77;;;12.45;;
71303;SDS011;59091;47.446;19.148;2022-11-11T04:44:56;23.60;;;12.13;;
71303;SDS011;59091;47.446;19.148;2022-11-11T04:47:53;26.20;;;13.18;;
71303;SDS011;59091;47.446;19.148;2022-11-11T04:50:26;28.83;;;13.73;;
71303;SDS011;59091;47.446;19.148;2022-11-11T04:52:54;24.88;;;13.18;;
71303;SDS011;59091;47.446;19.148;2022-11-11T04:55:19;25.05;;;13.40;;
71303;SDS011;59091;47.446;19.148;2022-11-11T04:58:03;23.88;;;11.90;;
71303;SDS011;59091;47.446;19.148;2022-11-11T05:00:29;27.75;;;12.75;;
71303;SDS011;59091;47.446;19.148;2022-11-11T05:02:55;27.55;;;12.52;;
71303;SDS011;59091;47.446;19.148;2022-11-11T05:05:40;23.15;;;12.85;;
71303;SDS011;59091;47.446;19.148;2022-11-11T05:08:28;28.17;;;13.40;;
71303;SDS011;59091;47.446;19.148;2022-11-11T05:11:13;26.92;;;13.52;;
71303;SDS011;59091;47.446;19.148;2022-11-11T05:13:38;28.63;;;12.98;;
71303;SDS011;59091;47.446;19.148;2022-11-11T05:19:11;25.85;;;12.40;;
71303;SDS011;59091;47.446;19.148;2022-11-11T05:21:57;29.17;;;13.27;;
71303;SDS011;59091;47.446;19.148;2022-11-11T05:24:32;27.60;;;13.00;;
71303;SDS011;59091;47.446;19.148;2022-11-11T05:27:16;31.58;;;14.15;;
71303;SDS011;59091;47.446;19.148;2022-11-11T05:29:42;26.83;;;13.73;;
71303;SDS011;59091;47.446;19.148;2022-11-11T05:32:07;31.45;;;13.50;;
71303;SDS011;59091;47.446;19.148;2022-11-11T05:34:33;28.40;;;13.95;;
71303;SDS011;59091;47.446;19.148;2022-11-11T05:36:58;28.80;;;12.95;;
71303;SDS011;59091;47.446;19.148;2022-11-11T05:39:24;26.17;;;13.27;;
71303;SDS011;59091;47.446;19.148;2022-11-11T05:41:49;29.27;;;12.57;;
71303;SDS011;59091;47.446;19.148;2022-11-11T05:44:15;28.75;;;13.52;;
71303;SDS011;59091;47.446;19.148;2022-11-11T05:46:40;30.83;;;13.95;;
71303;SDS011;59091;47.446;19.148;2022-11-11T05:49:06;30.70;;;13.70;;
71303;SDS011;59091;47.446;19.148;2022-11-11T05:51:40;25.88;;;13.48;;
71303;SDS011;59091;47.446;19.148;2022-11-11T05:54:06;30.38;;;14.35;;
71303;SDS011;59091;47.446;19.148;2022-11-11T05:56:31;32.67;;;15.20;;
71303;SDS011;59091;47.446;19.148;2022-11-11T05:58:57;40.38;;;18.17;;
71303;SDS011;59091;47.446;19.148;2022-11-11T06:01:22;42.63;;;18.52;;
71303;SDS011;59091;47.446;19.148;2022-11-11T06:03:48;48.97;;;21.98;;
71303;SDS011;59091;47.446;19.148;2022-11-11T06:06:13;58.28;;;25.17;;
71303;SDS011;59091;47.446;19.148;2022-11-11T06:08:39;56.05;;;24.80;;
71303;SDS011;59091;47.446;19.148;2022-11-11T06:11:04;54.88;;;24.98;;
71303;SDS011;59091;47.446;19.148;2022-11-11T06:13:30;53.40;;;25.05;;
71303;SDS011;59091;47.446;19.148;2022-11-11T06:15:55;55.85;;;24.73;;
71303;SDS011;59091;47.446;19.148;2022-11-11T06:18:21;51.60;;;23.95;;
71303;SDS011;59091;47.446;19.148;2022-11-11T06:20:53;52.65;;;23.60;;
71303;SDS011;59091;47.446;19.148;2022-11-11T06:23:20;56.92;;;24.17;;
71303;SDS011;59091;47.446;19.148;2022-11-11T06:25:45;51.65;;;23.90;;
71303;SDS011;59091;47.446;19.148;2022-11-11T06:28:29;51.10;;;23.42;;
71303;SDS011;59091;47.446;19.148;2022-11-11T06:30:55;51.35;;;24.77;;
71303;SDS011;59091;47.446;19.148;2022-11-11T06:33:20;53.08;;;22.05;;
71303;SDS011;59091;47.446;19.148;2022-11-11T06:35:46;53.50;;;23.45;;
71303;SDS011;59091;47.446;19.148;2022-11-11T06:38:11;51.63;;;23.88;;
71303;SDS011;59091;47.446;19.148;2022-11-11T06:40:37;45.25;;;21.67;;
71303;SDS011;59091;47.446;19.148;2022-11-11T06:43:03;45.67;;;22.02;;
71303;SDS011;59091;47.446;19.148;2022-11-11T06:45:30;51.90;;;22.88;;
71303;SDS011;59091;47.446;19.148;2022-11-11T06:47:57;50.40;;;24.00;;
71303;SDS011;59091;47.446;19.148;2022-11-11T06:50:22;49.70;;;21.65;;
71303;SDS011;59091;47.446;19.148;2022-11-11T06:52:48;52.47;;;23.40;;
71303;SDS011;59091;47.446;19.148;2022-11-11T06:55:13;46.35;;;22.50;;
71303;SDS011;59091;47.446;19.148;2022-11-11T06:57:38;48.72;;;22.55;;
71303;SDS011;59091;47.446;19.148;2022-11-11T07:00:04;53.28;;;22.77;;
71303;SDS011;59091;47.446;19.148;2022-11-11T07:02:31;44.67;;;20.92;;
71303;SDS011;59091;47.446;19.148;2022-11-11T07:04:57;47.08;;;22.55;;
71303;SDS011;59091;47.446;19.148;2022-11-11T07:07:22;49.28;;;22.35;;
71303;SDS011;59091;47.446;19.148;2022-11-11T07:09:48;47.97;;;22.27;;
71303;SDS011;59091;47.446;19.148;2022-11-11T07:12:13;52.38;;;22.20;;
71303;SDS011;59091;47.446;19.148;2022-11-11T07:14:39;45.47;;;20.13;;
71303;SDS011;59091;47.446;19.148;2022-11-11T07:17:04;37.70;;;19.23;;
71303;SDS011;59091;47.446;19.148;2022-11-11T07:19:30;36.42;;;18.00;;
71303;SDS011;59091;47.446;19.148;2022-11-11T07:21:55;37.33;;;17.83;;
71303;SDS011;59091;47.446;19.148;2022-11-11T07:24:21;39.83;;;17.65;;
71303;SDS011;59091;47.446;19.148;2022-11-11T07:26:46;38.47;;;17.52;;
71303;SDS011;59091;47.446;19.148;2022-11-11T07:29:12;39.63;;;18.10;;
71303;SDS011;59091;47.446;19.148;2022-11-11T07:31:39;39.20;;;18.23;;
71303;SDS011;59091;47.446;19.148;2022-11-11T07:34:05;33.22;;;16.92;;
71303;SDS011;59091;47.446;19.148;2022-11-11T07:36:30;45.03;;;18.48;;
71303;SDS011;59091;47.446;19.148;2022-11-11T07:38:56;38.65;;;18.10;;
71303;SDS011;59091;47.446;19.148;2022-11-11T07:41:21;32.63;;;16.08;;
71303;SDS011;59091;47.446;19.148;2022-11-11T07:43:47;36.92;;;16.48;;
71303;SDS011;59091;47.446;19.148;2022-11-11T07:46:12;31.95;;;17.27;;
71303;SDS011;59091;47.446;19.148;2022-11-11T07:48:38;31.65;;;17.02;;
71303;SDS011;59091;47.446;19.148;2022-11-11T07:51:03;32.33;;;16.75;;
71303;SDS011;59091;47.446;19.148;2022-11-11T07:53:29;36.47;;;17.65;;
71303;SDS011;59091;47.446;19.148;2022-11-11T07:55:54;36.90;;;17.45;;
71303;SDS011;59091;47.446;19.148;2022-11-11T07:58:20;33.80;;;16.00;;
71303;SDS011;59091;47.446;19.148;2022-11-11T08:00:45;33.97;;;16.25;;
71303;SDS011;59091;47.446;19.148;2022-11-11T08:03:10;33.20;;;16.65;;
71303;SDS011;59091;47.446;19.148;2022-11-11T08:05:36;32.95;;;16.73;;
71303;SDS011;59091;47.446;19.148;2022-11-11T08:08:03;40.20;;;15.98;;
71303;SDS011;59091;47.446;19.148;2022-11-11T08:10:29;31.05;;;15.85;;
71303;SDS011;59091;47.446;19.148;2022-11-11T08:12:55;32.58;;;16.33;;
71303;SDS011;59091;47.446;19.148;2022-11-11T08:15:39;36.72;;;16.00;;
71303;SDS011;59091;47.446;19.148;2022-11-11T08:18:05;33.83;;;16.55;;
71303;SDS011;59091;47.446;19.148;2022-11-11T08:20:31;35.35;;;16.40;;
71303;SDS011;59091;47.446;19.148;2022-11-11T08:22:56;37.47;;;17.27;;
71303;SDS011;59091;47.446;19.148;2022-11-11T08:25:23;29.83;;;15.65;;
71303;SDS011;59091;47.446;19.148;2022-11-11T08:27:54;32.58;;;16.00;;
71303;SDS011;59091;47.446;19.148;2022-11-11T08:30:24;35.90;;;17.05;;
71303;SDS011;59091;47.446;19.148;2022-11-11T08:32:55;32.58;;;15.82;;
71303;SDS011;59091;47.446;19.148;2022-11-11T08:35:25;31.10;;;15.32;;
71303;SDS011;59091;47.446;19.148;2022-11-11T08:37:51;32.80;;;17.17;;
71303;SDS011;59091;47.446;19.148;2022-11-11T08:40:17;31.20;;;14.55;;
71303;SDS011;59091;47.446;19.148;2022-11-11T08:42:43;27.58;;;15.20;;
71303;SDS011;59091;47.446;19.148;2022-11-11T08:45:09;34.28;;;15.30;;
71303;SDS011;59091;47.446;19.148;2022-11-11T08:47:35;28.23;;;15.50;;
71303;SDS011;59091;47.446;19.148;2022-11-11T08:50:01;31.92;;;14.55;;
71303;SDS011;59091;47.446;19.148;2022-11-11T08:52:26;29.80;;;15.25;;
71303;SDS011;59091;47.446;19.148;2022-11-11T08:54:52;30.45;;;15.48;;
71303;SDS011;59091;47.446;19.148;2022-11-11T08:57:17;29.42;;;15.43;;
71303;SDS011;59091;47.446;19.148;2022-11-11T08:59:42;24.02;;;12.60;;
71303;SDS011;59091;47.446;19.148;2022-11-11T09:02:09;27.20;;;13.75;;
71303;SDS011;59091;47.446;19.148;2022-11-11T09:04:38;29.77;;;15.68;;
71303;SDS011;59091;47.446;19.148;2022-11-11T09:07:05;24.55;;;13.73;;
71303;SDS011;59091;47.446;19.148;2022-11-11T09:09:31;29.00;;;14.70;;
71303;SDS011;59091;47.446;19.148;2022-11-11T09:11:57;31.52;;;16.05;;
71303;SDS011;59091;47.446;19.148;2022-11-11T09:14:22;27.77;;;15.18;;
71303;SDS011;59091;47.446;19.148;2022-11-11T09:16:48;33.17;;;15.73;;
71303;SDS011;59091;47.446;19.148;2022-11-11T09:19:13;34.45;;;15.23;;
71303;SDS011;59091;47.446;19.148;2022-11-11T09:21:39;26.25;;;14.98;;
71303;SDS011;59091;47.446;19.148;2022-11-11T09:24:04;27.05;;;14.85;;
71303;SDS011;59091;47.446;19.148;2022-11-11T09:26:30;25.77;;;14.57;;
71303;SDS011;59091;47.446;19.148;2022-11-11T09:28:55;25.73;;;13.27;;
71303;SDS011;59091;47.446;19.148;2022-11-11T09:31:21;31.13;;;14.50;;
71303;SDS011;59091;47.446;19.148;2022-11-11T09:33:48;30.50;;;15.18;;
71303;SDS011;59091;47.446;19.148;2022-11-11T09:36:14;32.83;;;14.52;;
71303;SDS011;59091;47.446;19.148;2022-11-11T09:38:40;26.98;;;14.43;;
71303;SDS011;59091;47.446;19.148;2022-11-11T09:41:52;24.55;;;14.23;;
71303;SDS011;59091;47.446;19.148;2022-11-11T09:44:02;30.85;;;13.63;;
71303;SDS011;59091;47.446;19.148;2022-11-11T09:49:37;27.80;;;14.32;;
71303;SDS011;59091;47.446;19.148;2022-11-11T09:52:05;27.63;;;14.77;;
71303;SDS011;59091;47.446;19.148;2022-11-11T09:54:43;28.27;;;15.02;;
71303;SDS011;59091;47.446;19.148;2022-11-11T09:57:23;29.15;;;16.48;;
71303;SDS011;59091;47.446;19.148;2022-11-11T09:59:56;31.45;;;16.95;;
71303;SDS011;59091;47.446;19.148;2022-11-11T10:05:10;34.80;;;17.40;;
71303;SDS011;59091;47.446;19.148;2022-11-11T10:07:56;40.33;;;18.73;;
71303;SDS011;59091;47.446;19.148;2022-11-11T10:13:06;33.97;;;17.77;;
71303;SDS011;59091;47.446;19.148;2022-11-11T10:15:40;32.42;;;17.67;;
71303;SDS011;59091;47.446;19.148;2022-11-11T10:20:42;32.33;;;17.48;;
71303;SDS011;59091;47.446;19.148;2022-11-11T10:23:19;34.47;;;17.60;;
71303;SDS011;59091;47.446;19.148;2022-11-11T10:25:53;31.88;;;17.38;;
71303;SDS011;59091;47.446;19.148;2022-11-11T10:28:21;35.85;;;18.17;;
71303;SDS011;59091;47.446;19.148;2022-11-11T10:30:50;31.10;;;16.17;;
71303;SDS011;59091;47.446;19.148;2022-11-11T10:33:52;29.35;;;16.08;;
71303;SDS011;59091;47.446;19.148;2022-11-11T10:36:17;27.58;;;14.80;;
71303;SDS011;59091;47.446;19.148;2022-11-11T10:39:03;33.30;;;14.27;;
71303;SDS011;59091;47.446;19.148;2022-11-11T10:44:35;27.00;;;13.63;;
71303;SDS011;59091;47.446;19.148;2022-11-11T10:47:09;20.23;;;10.98;;
71303;SDS011;59091;47.446;19.148;2022-11-11T10:49:54;24.15;;;13.93;;
71303;SDS011;59091;47.446;19.148;2022-11-11T10:52:59;28.53;;;14.80;;
71303;SDS011;59091;47.446;19.148;2022-11-11T10:55:31;25.25;;;14.05;;
71303;SDS011;59091;47.446;19.148;2022-11-11T11:00:39;32.42;;;14.25;;
71303;SDS011;59091;47.446;19.148;2022-11-11T11:10:49;34.17;;;14.82;;
71303;SDS011;59091;47.446;19.148;2022-11-11T11:16:07;28.42;;;15.80;;
71303;SDS011;59091;47.446;19.148;2022-11-11T11:18:39;28.50;;;15.25;;
71303;SDS011;59091;47.446;19.148;2022-11-11T11:21:05;23.77;;;14.38;;
71303;SDS011;59091;47.446;19.148;2022-11-11T11:23:42;29.38;;;14.05;;
71303;SDS011;59091;47.446;19.148;2022-11-11T11:26:10;27.20;;;15.13;;
71303;SDS011;59091;47.446;19.148;2022-11-11T11:31:35;29.77;;;16.20;;
71303;SDS011;59091;47.446;19.148;2022-11-11T11:34:05;30.25;;;16.38;;
71303;SDS011;59091;47.446;19.148;2022-11-11T11:36:30;30.67;;;15.63;;
71303;SDS011;59091;47.446;19.148;2022-11-11T11:38:56;25.75;;;15.07;;
71303;SDS011;59091;47.446;19.148;2022-11-11T11:41:38;34.88;;;15.68;;
71303;SDS011;59091;47.446;19.148;2022-11-11T11:44:24;31.88;;;15.25;;
71303;SDS011;59091;47.446;19.148;2022-11-11T11:46:55;27.02;;;14.48;;
71303;SDS011;59091;47.446;19.148;2022-11-11T11:52:37;28.35;;;14.55;;
71303;SDS011;59091;47.446;19.148;2022-11-11T11:55:17;28.98;;;14.85;;
71303;SDS011;59091;47.446;19.148;2022-11-11T12:00:28;25.42;;;13.27;;
71303;SDS011;59091;47.446;19.148;2022-11-11T12:03:07;25.38;;;12.23;;
71303;SDS011;59091;47.446;19.148;2022-11-11T12:06:02;28.33;;;15.02;;
71303;SDS011;59091;47.446;19.148;2022-11-11T12:17:43;24.75;;;14.80;;
71303;SDS011;59091;47.446;19.148;2022-11-11T12:20:10;22.33;;;13.15;;
71303;SDS011;59091;47.446;19.148;2022-11-11T12:25:28;21.00;;;13.73;;
71303;SDS011;59091;47.446;19.148;2022-11-11T12:45:19;27.92;;;14.52;;
71303;SDS011;59091;47.446;19.148;2022-11-11T12:50:54;26.20;;;12.38;;
71303;SDS011;59091;47.446;19.148;2022-11-11T12:53:30;20.77;;;11.48;;
71303;SDS011;59091;47.446;19.148;2022-11-11T13:04:20;20.17;;;10.75;;
71303;SDS011;59091;47.446;19.148;2022-11-11T13:07:33;28.08;;;10.77;;
71303;SDS011;59091;47.446;19.148;2022-11-11T13:10:26;18.13;;;10.48;;
71303;SDS011;59091;47.446;19.148;2022-11-11T13:16:38;7.85;;;2.78;;
71303;SDS011;59091;47.446;19.148;2022-11-11T13:19:19;5.20;;;1.90;;
71303;SDS011;59091;47.446;19.148;2022-11-11T13:22:24;4.60;;;1.67;;
71303;SDS011;59091;47.446;19.148;2022-11-11T13:24:58;4.05;;;1.90;;
71303;SDS011;59091;47.446;19.148;2022-11-11T13:35:43;10.95;;;2.40;;
71303;SDS011;59091;47.446;19.148;2022-11-11T13:41:18;6.30;;;2.20;;
71303;SDS011;59091;47.446;19.148;2022-11-11T13:43:57;5.00;;;1.83;;
71303;SDS011;59091;47.446;19.148;2022-11-11T13:46:44;2.08;;;1.90;;
71303;SDS011;59091;47.446;19.148;2022-11-11T13:52:03;10.50;;;2.38;;
71303;SDS011;59091;47.446;19.148;2022-11-11T13:54:46;6.38;;;3.05;;
71303;SDS011;59091;47.446;19.148;2022-11-11T13:57:20;8.90;;;3.20;;
71303;SDS011;59091;47.446;19.148;2022-11-11T14:00:16;6.22;;;2.60;;
71303;SDS011;59091;47.446;19.148;2022-11-11T14:05:43;7.53;;;2.60;;
71303;SDS011;59091;47.446;19.148;2022-11-11T14:08:08;9.77;;;3.05;;
71303;SDS011;59091;47.446;19.148;2022-11-11T14:15:47;6.90;;;2.90;;
71303;SDS011;59091;47.446;19.148;2022-11-11T14:20:42;6.18;;;3.45;;
71303;SDS011;59091;47.446;19.148;2022-11-11T14:36:39;10.93;;;3.60;;
71303;SDS011;59091;47.446;19.148;2022-11-11T14:41:57;11.35;;;3.67;;
71303;SDS011;59091;47.446;19.148;2022-11-11T14:52:20;5.10;;;2.88;;
71303;SDS011;59091;47.446;19.148;2022-11-11T14:54:50;7.68;;;3.20;;
71303;SDS011;59091;47.446;19.148;2022-11-11T14:57:18;8.55;;;3.80;;
71303;SDS011;59091;47.446;19.148;2022-11-11T14:59:47;8.48;;;3.35;;
71303;SDS011;59091;47.446;19.148;2022-11-11T15:02:33;10.35;;;4.00;;
71303;SDS011;59091;47.446;19.148;2022-11-11T15:05:02;4.65;;;3.53;;
71303;SDS011;59091;47.446;19.148;2022-11-11T15:21:32;6.05;;;3.75;;
71303;SDS011;59091;47.446;19.148;2022-11-11T15:26:44;8.13;;;4.85;;
71303;SDS011;59091;47.446;19.148;2022-11-11T15:34:56;10.40;;;4.70;;
71303;SDS011;59091;47.446;19.148;2022-11-11T15:37:26;10.88;;;4.93;;
71303;SDS011;59091;47.446;19.148;2022-11-11T15:39:54;8.38;;;4.85;;
71303;SDS011;59091;47.446;19.148;2022-11-11T15:42:34;13.82;;;4.80;;
71303;SDS011;59091;47.446;19.148;2022-11-11T15:45:06;11.82;;;5.15;;
71303;SDS011;59091;47.446;19.148;2022-11-11T15:47:44;12.88;;;5.22;;
71303;SDS011;59091;47.446;19.148;2022-11-11T15:50:15;14.25;;;5.32;;
71303;SDS011;59091;47.446;19.148;2022-11-11T15:52:53;10.70;;;5.68;;
71303;SDS011;59091;47.446;19.148;2022-11-11T15:57:53;10.73;;;5.70;;
71303;SDS011;59091;47.446;19.148;2022-11-11T16:00:29;12.45;;;5.65;;
71303;SDS011;59091;47.446;19.148;2022-11-11T16:02:55;12.77;;;5.90;;
71303;SDS011;59091;47.446;19.148;2022-11-11T16:05:22;12.50;;;5.45;;
71303;SDS011;59091;47.446;19.148;2022-11-11T16:07:49;13.48;;;6.22;;
71303;SDS011;59091;47.446;19.148;2022-11-11T16:10:26;19.55;;;9.70;;
71303;SDS011;59091;47.446;19.148;2022-11-11T16:13:14;18.90;;;8.52;;
71303;SDS011;59091;47.446;19.148;2022-11-11T16:15:45;23.35;;;8.20;;
71303;SDS011;59091;47.446;19.148;2022-11-11T16:18:25;22.27;;;9.45;;
71303;SDS011;59091;47.446;19.148;2022-11-11T16:23:30;21.13;;;9.35;;
71303;SDS011;59091;47.446;19.148;2022-11-11T16:25:57;22.23;;;9.43;;
71303;SDS011;59091;47.446;19.148;2022-11-11T16:28:24;22.77;;;9.43;;
71303;SDS011;59091;47.446;19.148;2022-11-11T16:30:52;24.15;;;9.95;;
71303;SDS011;59091;47.446;19.148;2022-11-11T16:35:52;21.45;;;11.15;;
71303;SDS011;59091;47.446;19.148;2022-11-11T16:38:30;24.77;;;11.02;;
71303;SDS011;59091;47.446;19.148;2022-11-11T16:40:58;29.98;;;12.60;;
71303;SDS011;59091;47.446;19.148;2022-11-11T16:43:25;26.85;;;12.82;;
71303;SDS011;59091;47.446;19.148;2022-11-11T16:51:08;31.25;;;13.90;;
71303;SDS011;59091;47.446;19.148;2022-11-11T16:53:37;32.33;;;15.23;;
71303;SDS011;59091;47.446;19.148;2022-11-11T16:56:07;30.58;;;15.32;;
71303;SDS011;59091;47.446;19.148;2022-11-11T17:01:06;32.83;;;15.00;;
71303;SDS011;59091;47.446;19.148;2022-11-11T17:03:32;31.10;;;15.38;;
71303;SDS011;59091;47.446;19.148;2022-11-11T17:05:59;35.53;;;15.98;;
71303;SDS011;59091;47.446;19.148;2022-11-11T17:08:31;35.28;;;17.52;;
71303;SDS011;59091;47.446;19.148;2022-11-11T17:11:03;33.80;;;17.33;;
71303;SDS011;59091;47.446;19.148;2022-11-11T17:13:31;32.65;;;17.20;;
71303;SDS011;59091;47.446;19.148;2022-11-11T17:15:58;35.97;;;17.40;;
71303;SDS011;59091;47.446;19.148;2022-11-11T17:18:31;41.38;;;18.55;;
71303;SDS011;59091;47.446;19.148;2022-11-11T17:21:02;43.47;;;18.75;;
71303;SDS011;59091;47.446;19.148;2022-11-11T17:23:27;39.63;;;20.50;;
71303;SDS011;59091;47.446;19.148;2022-11-11T17:25:56;42.05;;;19.65;;
71303;SDS011;59091;47.446;19.148;2022-11-11T17:28:28;39.47;;;19.97;;
71303;SDS011;59091;47.446;19.148;2022-11-11T17:30:55;42.35;;;20.33;;
71303;SDS011;59091;47.446;19.148;2022-11-11T17:33:24;44.15;;;21.65;;
71303;SDS011;59091;47.446;19.148;2022-11-11T17:35:50;41.83;;;20.75;;
71303;SDS011;59091;47.446;19.148;2022-11-11T17:38:16;40.90;;;21.30;;
71303;SDS011;59091;47.446;19.148;2022-11-11T17:40:47;51.63;;;24.80;;